Hong Xing — BQIB — position and weather

sailwx.info

Track history (hours):
 
Tides and Currents Weather Stations Pressure Air Temp Water Temp Dewpoint Dewpoint Depression Visibility Wind Speed Wind Dir Waves Ship Positions

Hong Xing

Last reported at 2017-Nov-23 09:00 UTC. Time now 2017-Nov-23 09:25 UTC.
Position N 35°26' E 139°44'.

Length 170 m; draft 9.2 m.

Type: Cargo ship. MMSI: 412379590.

Date/timePositionNaut miles runAvg speedWind from/ knotsBaromVisibWave heightAir tempDewpointWater temp
2017-Nov-23 09:00N 35°26' E 139°44'0 0.1
2017-Nov-23 08:30N 35°27' E 139°44'0 0.0
2017-Nov-23 08:00N 35°27' E 139°44'0 0.0
2017-Nov-23 07:30N 35°27' E 139°44'0 0.0
2017-Nov-23 07:00N 35°27' E 139°44'0 0.0
2017-Nov-23 06:30N 35°27' E 139°44'0 0.1
2017-Nov-23 06:00N 35°26' E 139°44'0 0.2
2017-Nov-23 05:30N 35°26' E 139°44'0 0.0
2017-Nov-23 05:00N 35°26' E 139°44'0 0.0
2017-Nov-23 04:30N 35°26' E 139°44'0 0.0
2017-Nov-23 04:00N 35°26' E 139°44'0 0.0
2017-Nov-23 03:30N 35°26' E 139°44'0 0.0
2017-Nov-23 03:00N 35°26' E 139°44'0 0.0
2017-Nov-23 02:30N 35°26' E 139°44'0 0.1
2017-Nov-23 02:00N 35°26' E 139°44'0 0.1
2017-Nov-23 01:27N 35°26' E 139°44'0 0.0
2017-Nov-23 01:00N 35°26' E 139°44'0 0.0
2017-Nov-23 00:30N 35°26' E 139°44'0 0.4
2017-Nov-23 00:00N 35°27' E 139°44'2 4.7
2017-Nov-22 23:31N 35°25' E 139°46'510.2
2017-Nov-22 23:00N 35°20' E 139°44'510.2
2017-Nov-22 22:31N 35°15' E 139°47'510.6
2017-Nov-22 22:00N 35°10' E 139°47'3 6.3
2017-Nov-22 21:30N 35°07' E 139°45'3 6.7
2017-Nov-22 21:00N 35°04' E 139°44'2 3.7
2017-Nov-22 20:30N 35°02' E 139°43'2 3.7
2017-Nov-22 20:00N 35°01' E 139°42'2 3.7
2017-Nov-22 19:30N 34°59' E 139°40'  
Track history (hours):
 
Tides and Currents Weather Stations Pressure Air Temp Water Temp Dewpoint Dewpoint Depression Visibility Wind Speed Wind Dir Waves Ship Positions

Hong Xing

Last reported at 2017-Nov-23 09:00 UTC. Time now 2017-Nov-23 09:25 UTC.
Position N 35°26' E 139°44'.

Length 170 m; draft 9.2 m.

Type: Cargo ship. MMSI: 412379590.

Date/timePositionNaut miles runAvg speedWind from/ knotsBaromVisibWave heightAir tempDewpointWater temp
2017-Nov-23 09:00N 35°26' E 139°44'0 0.1
2017-Nov-23 08:30N 35°27' E 139°44'0 0.0
2017-Nov-23 08:00N 35°27' E 139°44'0 0.0
2017-Nov-23 07:30N 35°27' E 139°44'0 0.0
2017-Nov-23 07:00N 35°27' E 139°44'0 0.0
2017-Nov-23 06:30N 35°27' E 139°44'0 0.1
2017-Nov-23 06:00N 35°26' E 139°44'0 0.2
2017-Nov-23 05:30N 35°26' E 139°44'0 0.0
2017-Nov-23 05:00N 35°26' E 139°44'0 0.0
2017-Nov-23 04:30N 35°26' E 139°44'0 0.0
2017-Nov-23 04:00N 35°26' E 139°44'0 0.0
2017-Nov-23 03:30N 35°26' E 139°44'0 0.0
2017-Nov-23 03:00N 35°26' E 139°44'0 0.0
2017-Nov-23 02:30N 35°26' E 139°44'0 0.1
2017-Nov-23 02:00N 35°26' E 139°44'0 0.1
2017-Nov-23 01:27N 35°26' E 139°44'0 0.0
2017-Nov-23 01:00N 35°26' E 139°44'0 0.0
2017-Nov-23 00:30N 35°26' E 139°44'0 0.4
2017-Nov-23 00:00N 35°27' E 139°44'2 4.7
2017-Nov-22 23:31N 35°25' E 139°46'510.2
2017-Nov-22 23:00N 35°20' E 139°44'510.2
2017-Nov-22 22:31N 35°15' E 139°47'510.6
2017-Nov-22 22:00N 35°10' E 139°47'3 6.3
2017-Nov-22 21:30N 35°07' E 139°45'3 6.7
2017-Nov-22 21:00N 35°04' E 139°44'2 3.7
2017-Nov-22 20:30N 35°02' E 139°43'2 3.7
2017-Nov-22 20:00N 35°01' E 139°42'2 3.7
2017-Nov-22 19:30N 34°59' E 139°40'  

Dump ship's entire track history